Terminal Aerodrome Forecast
Issued by NWS

Home | Current Version | Previous Version | Graphics & Text | Print | Product List | Glossary On
Versions: 1 2 3 4 5 6 7 8 9 10 11 12 13 14 15 16 17 18 19 20 21 22 23 24 25 26 27 28 29
000
FTUS43 KGRB 261122
TAFATW
TAF
KATW 261122Z 2612/2712 18005KT 1/4SM FG VV002
      TEMPO 2613/2614 1 1/2SM BR BKN004
     FM261400 21009G16KT P6SM SCT025 BKN040
      TEMPO 2615/2619 3SM TSRA BR BKN025CB
     FM262100 18008G15KT P6SM SCT040 BKN250
     FM270200 15004KT 4SM BR SCT008 BKN250
      TEMPO 2708/2712 1 1/2SM BR BKN005=

USA.gov is the U.S. government's official web portal to all federal, state and local government web resources and services.